DLM weather

Dalaman International Airport
Dalaman, Mu─čla Province, Turkey

Public forecast

Using degrees Celsius for public forecast. Weather courtesy of forecast.io.

Current aviation weather report (METAR) for Dalaman International Airport

Retrieved 2019/12/06 02:20 UTC (34 minutes ago):

LTBS 060220Z 06005KT CAVOK 07/01 Q1020 NOSIG RMK RWY19 32012KT

Aviation forecast (TAF) for Dalaman International Airport

Retrieved 2019-12-06 00:37 UTC (2 hours ago):

TAF LTBS 052240Z 0600/0624 36009KT CAVOK